createdAt,value
2017-09-04T06:25:42.092Z,79.20
2017-09-04T06:28:09.612Z,99.90
2017-09-04T06:30:37.137Z,99.90
2017-09-04T06:33:04.673Z,99.90
2017-09-04T06:35:32.184Z,99.90
2017-09-04T06:37:59.708Z,99.90
2017-09-04T06:40:27.221Z,99.90
2017-09-04T06:42:54.754Z,99.90
2017-09-04T06:45:22.265Z,99.90
2017-09-04T06:47:50.556Z,96.60
2017-09-04T06:50:18.827Z,96.50
2017-09-04T06:52:46.361Z,96.50
2017-09-04T06:55:13.882Z,93.70
2017-09-04T06:57:41.409Z,91.30
2017-09-04T07:00:09.016Z,91.60
2017-09-04T07:02:36.540Z,92.80
2017-09-04T07:05:04.044Z,93.30
2017-09-04T07:07:31.576Z,93.50
2017-09-04T07:09:59.084Z,92.70
2017-09-04T07:12:26.622Z,89.10
2017-09-04T07:14:54.127Z,90.80
2017-09-04T07:19:51.663Z,97.20
2017-09-04T07:39:41.257Z,79.90
2017-09-04T07:42:08.787Z,82.20
2017-09-04T07:44:36.304Z,82.70
2017-09-04T07:47:03.849Z,78.80
2017-09-04T07:49:31.366Z,74.20
2017-09-04T07:51:58.920Z,76.80
2017-09-04T07:54:26.442Z,74.60
2017-09-04T07:56:53.965Z,75.10
2017-09-04T07:59:21.492Z,73.60
2017-09-04T08:01:49.003Z,75.20
2017-09-04T08:04:16.534Z,73.90
2017-09-04T08:06:44.049Z,72.50
2017-09-04T08:09:11.588Z,73.00
2017-09-04T08:11:39.108Z,73.60
2017-09-04T08:14:06.631Z,69.70
2017-09-04T08:16:34.149Z,69.40
2017-09-04T08:19:01.672Z,72.00
2017-09-04T08:21:29.199Z,71.80
2017-09-04T08:23:56.720Z,70.60
2017-09-04T08:31:23.071Z,69.40
2017-09-04T08:36:20.621Z,70.70
2017-09-04T08:38:48.156Z,70.00
2017-09-04T08:41:15.680Z,69.70
2017-09-04T08:43:43.200Z,70.20
2017-09-04T08:46:10.722Z,71.30
2017-09-04T08:48:38.248Z,70.20
2017-09-04T08:51:05.776Z,70.00
2017-09-04T08:53:33.319Z,66.30
2017-09-04T08:56:01.982Z,67.10
2017-09-04T08:58:29.822Z,67.50
2017-09-04T09:13:23.002Z,68.00
2017-09-04T09:15:50.560Z,65.30
2017-09-04T09:18:18.097Z,65.10
2017-09-04T09:20:45.621Z,67.40
2017-09-04T09:23:13.163Z,65.30
2017-09-04T09:25:40.689Z,64.00
2017-09-04T09:28:08.328Z,69.00
2017-09-04T09:30:35.864Z,74.20
2017-09-04T09:33:03.422Z,74.80
2017-09-04T10:05:17.460Z,61.60
2017-09-04T10:07:44.981Z,65.10
2017-09-04T10:10:12.524Z,62.30
2017-09-04T10:12:40.041Z,62.10
2017-09-04T10:15:07.581Z,61.40
2017-09-04T10:17:35.148Z,61.60
2017-09-04T10:20:02.696Z,63.30
2017-09-04T10:22:30.206Z,61.00
2017-09-04T10:24:57.751Z,56.60
2017-09-04T10:27:25.255Z,62.60
2017-09-04T10:29:52.788Z,59.90
2017-09-04T10:32:20.310Z,60.00
2017-09-04T10:34:47.850Z,62.50
2017-09-04T10:37:15.370Z,60.00
2017-09-04T10:39:44.047Z,58.70
2017-09-04T10:42:11.573Z,59.30
2017-09-04T10:44:39.119Z,58.40
2017-09-04T10:47:06.651Z,56.90
2017-09-04T10:49:34.202Z,58.50
2017-09-04T10:52:01.721Z,58.20
2017-09-04T10:54:29.286Z,58.40
2017-09-04T10:56:56.813Z,57.40
2017-09-04T10:59:24.340Z,59.60
2017-09-04T11:01:51.859Z,59.50
2017-09-04T11:04:19.409Z,55.90
2017-09-04T11:06:46.951Z,58.30
2017-09-04T11:09:14.485Z,58.30
2017-09-04T11:11:42.000Z,62.20
2017-09-04T11:14:09.547Z,60.50
2017-09-04T11:16:37.101Z,61.80
2017-09-04T11:19:04.622Z,60.70
2017-09-04T11:21:32.152Z,59.60
2017-09-04T11:23:59.666Z,58.40
2017-09-04T11:26:27.239Z,60.50
2017-09-04T11:28:54.779Z,63.70
2017-09-04T11:31:22.319Z,61.50
2017-09-04T11:33:49.842Z,59.90
2017-09-04T11:36:17.397Z,62.80
2017-09-04T11:38:44.916Z,58.10
2017-09-04T11:41:12.463Z,60.00
2017-09-04T11:43:39.976Z,60.20
2017-09-04T11:46:07.576Z,59.20
2017-09-04T11:48:35.218Z,60.70
2017-09-04T11:51:02.749Z,60.10
2017-09-04T11:53:30.341Z,63.20
2017-09-04T11:56:00.518Z,63.30
2017-09-04T11:58:28.039Z,63.70
2017-09-04T12:00:55.573Z,61.00
2017-09-04T12:03:23.861Z,60.60
2017-09-04T12:05:51.390Z,60.50
2017-09-04T12:08:18.903Z,58.60
2017-09-04T12:10:46.446Z,62.10
2017-09-04T12:13:13.972Z,59.20
2017-09-04T12:15:41.492Z,60.60
2017-09-04T12:18:09.018Z,61.70
2017-09-04T12:20:37.308Z,65.60
2017-09-04T12:23:04.825Z,65.30
2017-09-04T12:45:23.377Z,60.60
2017-09-04T13:00:15.243Z,88.80
2017-09-04T13:02:43.550Z,64.50
2017-09-04T13:05:11.077Z,64.40
2017-09-04T13:10:09.225Z,65.00
2017-09-04T13:12:36.763Z,63.30
2017-09-04T13:15:14.954Z,62.80
2017-09-04T13:17:49.000Z,61.90
2017-09-04T13:23:21.209Z,60.70
2017-09-04T13:39:04.804Z,65.50
2017-09-04T13:41:39.043Z,60.50
2017-09-04T13:44:26.441Z,68.40
2017-09-04T13:47:00.655Z,79.00
2017-09-04T13:49:34.505Z,61.70
2017-09-04T13:52:20.830Z,60.00
2017-09-04T13:54:54.796Z,57.50
2017-09-04T13:57:24.926Z,59.10
2017-09-04T14:00:12.341Z,59.30
2017-09-04T14:02:45.538Z,59.50
